createdAt,value
2023-01-30T00:01:29.810Z,4.90
2023-01-30T00:03:56.426Z,4.90
2023-01-30T00:06:23.340Z,5.13
2023-01-30T00:08:49.836Z,5.50
2023-01-30T00:11:17.855Z,4.67
2023-01-30T00:13:44.468Z,4.73
2023-01-30T00:16:11.736Z,5.03
2023-01-30T00:18:40.160Z,5.03
2023-01-30T00:21:09.047Z,4.40
2023-01-30T00:23:38.571Z,4.93
2023-01-30T00:26:09.888Z,4.93
2023-01-30T00:28:40.146Z,4.57
2023-01-30T00:31:07.470Z,4.73
2023-01-30T00:33:36.380Z,5.00
2023-01-30T00:36:03.193Z,5.47
2023-01-30T00:38:29.756Z,5.13
2023-01-30T00:40:56.245Z,5.13
2023-01-30T00:43:41.234Z,4.77
2023-01-30T00:46:58.604Z,5.23
2023-01-30T00:49:25.111Z,5.80
2023-01-30T00:51:51.756Z,5.10
2023-01-30T00:54:18.230Z,5.37
2023-01-30T00:56:44.713Z,5.10
2023-01-30T00:59:11.261Z,5.37
2023-01-30T01:01:38.339Z,5.00
2023-01-30T01:04:08.900Z,6.10
2023-01-30T01:06:35.441Z,4.50
2023-01-30T01:09:02.171Z,5.27
2023-01-30T01:11:28.711Z,4.10
2023-01-30T01:14:00.460Z,4.33
2023-01-30T01:16:28.807Z,4.60
2023-01-30T01:18:55.716Z,5.00
2023-01-30T01:21:23.301Z,5.93
2023-01-30T01:23:55.705Z,4.70
2023-01-30T01:26:23.235Z,4.97
2023-01-30T01:28:50.037Z,5.50
2023-01-30T01:31:17.335Z,5.83
2023-01-30T01:33:44.070Z,4.63
2023-01-30T01:36:10.686Z,6.03
2023-01-30T01:38:37.648Z,4.83
2023-01-30T01:41:07.700Z,5.07
2023-01-30T01:43:37.414Z,5.37
2023-01-30T01:46:10.627Z,5.50
2023-01-30T01:48:52.281Z,5.33
2023-01-30T01:51:24.470Z,7.27
2023-01-30T01:54:08.682Z,6.77
2023-01-30T01:56:38.653Z,6.20
2023-01-30T01:59:13.630Z,5.20
2023-01-30T02:01:42.245Z,6.57
2023-01-30T02:04:11.958Z,6.30
2023-01-30T02:06:42.165Z,6.37
2023-01-30T02:09:10.973Z,7.37
2023-01-30T02:11:47.740Z,7.03
2023-01-30T02:14:15.933Z,6.07
2023-01-30T02:16:44.943Z,6.67
2023-01-30T02:19:25.767Z,6.67
2023-01-30T02:22:05.315Z,6.23
2023-01-30T02:24:57.794Z,5.73
2023-01-30T02:27:41.744Z,5.47
2023-01-30T02:30:27.873Z,5.77
2023-01-30T02:33:00.299Z,5.67
2023-01-30T02:35:44.103Z,5.47
2023-01-30T02:38:27.119Z,5.77
2023-01-30T02:41:02.575Z,6.07
2023-01-30T02:43:59.941Z,6.13
2023-01-30T02:46:54.904Z,6.33
2023-01-30T02:49:30.773Z,5.77
2023-01-30T02:52:00.278Z,6.67
2023-01-30T02:54:27.034Z,6.07
2023-01-30T02:56:58.045Z,5.80
2023-01-30T02:59:36.965Z,6.57
2023-01-30T03:02:41.102Z,6.80
2023-01-30T03:05:20.328Z,6.10
2023-01-30T03:08:17.432Z,7.37
2023-01-30T03:10:53.122Z,6.97
2023-01-30T03:13:27.647Z,5.73
2023-01-30T03:16:00.032Z,6.47
2023-01-30T03:18:26.656Z,6.53
2023-01-30T03:20:53.659Z,7.53
2023-01-30T03:23:20.122Z,6.43
2023-01-30T03:25:48.700Z,6.93
2023-01-30T03:28:20.439Z,6.10
2023-01-30T03:30:47.069Z,6.33
2023-01-30T03:33:13.583Z,6.87
2023-01-30T03:35:40.556Z,6.83
2023-01-30T03:38:07.194Z,7.13
2023-01-30T03:40:33.681Z,6.80
2023-01-30T03:43:00.181Z,6.20
2023-01-30T03:45:26.695Z,6.30
2023-01-30T03:47:53.271Z,6.07
2023-01-30T03:50:19.851Z,6.03
2023-01-30T03:52:46.374Z,6.87
2023-01-30T03:55:12.922Z,7.70
2023-01-30T03:57:39.353Z,7.33
2023-01-30T04:00:06.568Z,7.53
2023-01-30T04:02:33.056Z,7.17
2023-01-30T04:04:59.540Z,6.23
2023-01-30T04:07:28.999Z,6.33
2023-01-30T04:09:55.539Z,7.80
2023-01-30T04:12:22.131Z,6.80
2023-01-30T04:14:48.649Z,7.13
2023-01-30T04:17:15.117Z,6.00
2023-01-30T04:19:41.587Z,5.90
2023-01-30T04:22:08.109Z,7.27
2023-01-30T04:24:34.578Z,6.50
2023-01-30T04:27:01.003Z,7.03
2023-01-30T04:29:27.492Z,7.07
2023-01-30T04:31:54.000Z,6.77
2023-01-30T04:34:20.438Z,6.60
2023-01-30T04:36:46.956Z,6.13
2023-01-30T04:39:13.469Z,6.70
2023-01-30T04:41:40.024Z,5.53
2023-01-30T04:44:06.612Z,6.07
2023-01-30T04:46:33.065Z,6.47
2023-01-30T04:48:59.554Z,5.87
2023-01-30T04:51:26.067Z,5.90
2023-01-30T04:53:52.486Z,6.73
2023-01-30T04:56:21.346Z,6.30
2023-01-30T04:58:47.760Z,6.43
2023-01-30T05:01:33.914Z,6.87
2023-01-30T05:04:00.599Z,6.50
2023-01-30T05:06:27.635Z,5.87
2023-01-30T05:08:56.037Z,5.73
2023-01-30T05:11:24.109Z,5.60
2023-01-30T05:13:51.651Z,6.97
2023-01-30T05:16:19.692Z,6.70
2023-01-30T05:18:46.292Z,6.70
2023-01-30T05:21:25.921Z,6.73
2023-01-30T05:23:56.248Z,6.17
2023-01-30T05:26:23.048Z,5.90
2023-01-30T05:28:57.269Z,6.60
2023-01-30T05:31:24.372Z,7.97
2023-01-30T05:33:55.364Z,8.13
2023-01-30T05:36:23.943Z,12.13
2023-01-30T05:38:50.505Z,10.93
2023-01-30T05:41:17.746Z,11.33
2023-01-30T05:43:44.690Z,8.93
2023-01-30T05:46:12.680Z,7.83
2023-01-30T05:48:39.549Z,9.20
2023-01-30T05:51:06.421Z,8.63
2023-01-30T05:53:41.769Z,8.63
2023-01-30T05:56:09.506Z,7.73
2023-01-30T05:58:36.042Z,8.43
2023-01-30T06:01:05.647Z,10.90
2023-01-30T06:03:33.012Z,8.63
2023-01-30T06:06:02.496Z,9.63
2023-01-30T06:08:30.062Z,9.17
2023-01-30T06:11:08.522Z,8.33
2023-01-30T06:13:36.380Z,8.73
2023-01-30T06:16:03.499Z,8.10
2023-01-30T06:18:31.098Z,8.13
2023-01-30T06:20:58.199Z,8.80
2023-01-30T06:23:25.121Z,8.33
2023-01-30T06:25:57.211Z,9.40
2023-01-30T06:28:26.071Z,8.53
2023-01-30T06:30:55.410Z,7.87
2023-01-30T06:33:24.981Z,7.53
2023-01-30T06:35:54.432Z,8.67
2023-01-30T06:38:21.154Z,9.20
2023-01-30T06:40:49.749Z,7.90
2023-01-30T06:43:17.103Z,8.87
2023-01-30T06:45:44.154Z,8.77
2023-01-30T06:48:11.007Z,8.03
2023-01-30T06:50:37.752Z,7.93
2023-01-30T06:53:07.049Z,8.40
2023-01-30T06:55:35.840Z,8.37
2023-01-30T06:58:10.023Z,10.23
2023-01-30T07:00:39.640Z,8.90
2023-01-30T07:03:10.441Z,9.53
2023-01-30T07:05:39.328Z,7.73
2023-01-30T07:08:06.043Z,8.63
2023-01-30T07:10:32.901Z,9.07
2023-01-30T07:12:59.927Z,9.93
2023-01-30T07:15:26.677Z,9.40
2023-01-30T07:17:57.295Z,8.57
2023-01-30T07:20:27.346Z,9.50
2023-01-30T07:22:57.757Z,10.03
2023-01-30T07:25:28.674Z,8.80
2023-01-30T07:28:02.127Z,9.27
2023-01-30T07:30:31.812Z,9.60
2023-01-30T07:33:00.166Z,8.40
2023-01-30T07:35:30.395Z,10.90
2023-01-30T07:37:57.266Z,11.03
2023-01-30T07:40:26.880Z,11.20
2023-01-30T07:43:05.175Z,10.10
2023-01-30T07:45:39.958Z,10.30
2023-01-30T07:48:07.790Z,9.67
2023-01-30T07:50:34.557Z,9.70
2023-01-30T07:53:04.606Z,10.10
2023-01-30T07:55:31.472Z,10.13
2023-01-30T07:57:58.389Z,9.10
2023-01-30T08:00:25.349Z,9.37
2023-01-30T08:02:54.806Z,10.13
2023-01-30T08:05:24.140Z,8.87
2023-01-30T08:07:51.060Z,9.63
2023-01-30T08:10:18.298Z,9.13
2023-01-30T08:12:47.144Z,9.10
2023-01-30T08:15:13.975Z,9.90
2023-01-30T08:17:40.886Z,10.17
2023-01-30T08:20:08.565Z,9.73
2023-01-30T08:22:35.465Z,10.20
2023-01-30T08:25:02.321Z,10.43
2023-01-30T08:27:29.029Z,9.60
2023-01-30T08:29:55.860Z,9.33
2023-01-30T08:32:25.364Z,9.93
2023-01-30T08:34:54.013Z,9.33
2023-01-30T08:37:21.157Z,9.10
2023-01-30T08:39:50.609Z,10.80
2023-01-30T08:42:17.309Z,9.63
2023-01-30T08:44:44.061Z,10.07
2023-01-30T08:47:11.047Z,9.33
2023-01-30T08:49:37.709Z,9.47
2023-01-30T08:52:04.271Z,9.23
2023-01-30T08:54:36.302Z,8.97
2023-01-30T08:57:02.727Z,9.17
2023-01-30T08:59:29.150Z,9.03
2023-01-30T09:01:55.650Z,9.30
2023-01-30T09:04:24.915Z,10.30
2023-01-30T09:06:54.425Z,8.73
2023-01-30T09:09:20.959Z,8.10
2023-01-30T09:11:48.245Z,11.00
2023-01-30T09:14:19.890Z,9.17
2023-01-30T09:16:56.435Z,9.63
2023-01-30T09:19:27.744Z,13.73
2023-01-30T09:21:57.074Z,11.53
2023-01-30T09:24:27.771Z,11.23
2023-01-30T09:26:58.876Z,11.73
2023-01-30T09:29:28.492Z,12.03
2023-01-30T09:31:56.586Z,13.07
2023-01-30T09:34:28.636Z,11.97
2023-01-30T09:36:56.708Z,11.03
2023-01-30T09:39:24.909Z,12.77
2023-01-30T09:42:20.666Z,11.03
2023-01-30T09:45:16.178Z,11.87
2023-01-30T09:48:07.027Z,10.13
2023-01-30T09:50:45.675Z,10.50
2023-01-30T09:53:34.429Z,9.47
2023-01-30T09:56:01.757Z,10.17
2023-01-30T09:58:55.129Z,10.23
2023-01-30T10:01:57.233Z,10.83
2023-01-30T10:04:39.040Z,11.47
2023-01-30T10:08:08.615Z,10.97
2023-01-30T10:10:40.012Z,10.10
2023-01-30T10:13:15.942Z,10.00
2023-01-30T10:15:51.026Z,9.63
2023-01-30T10:18:51.030Z,7.83
2023-01-30T10:21:36.418Z,10.10
2023-01-30T10:24:37.059Z,8.67
2023-01-30T10:27:10.263Z,9.03
2023-01-30T10:29:39.871Z,8.80
2023-01-30T10:32:18.581Z,7.60
2023-01-30T10:34:50.301Z,9.43
2023-01-30T10:37:42.495Z,8.63
2023-01-30T10:40:25.339Z,9.53
2023-01-30T10:43:12.136Z,8.37
2023-01-30T10:45:54.517Z,9.10
2023-01-30T10:48:49.461Z,8.53
2023-01-30T10:51:55.946Z,8.17
2023-01-30T10:54:45.592Z,7.90
2023-01-30T10:57:30.291Z,9.13
2023-01-30T11:00:10.539Z,8.50
2023-01-30T11:03:05.186Z,8.93
2023-01-30T11:05:45.289Z,8.20
2023-01-30T11:08:19.644Z,7.80
2023-01-30T11:10:46.270Z,8.80
2023-01-30T11:13:32.446Z,8.03
2023-01-30T11:16:06.621Z,8.17
2023-01-30T11:19:17.689Z,7.77
2023-01-30T11:21:34.926Z,8.77
2023-01-30T11:24:17.172Z,8.40
2023-01-30T11:26:47.726Z,8.17
2023-01-30T11:29:37.909Z,8.40
2023-01-30T11:32:11.648Z,8.07
2023-01-30T11:34:38.154Z,7.87
2023-01-30T11:37:41.700Z,7.73
2023-01-30T11:40:25.267Z,7.07
2023-01-30T11:43:04.481Z,7.90
2023-01-30T11:45:38.042Z,8.10
2023-01-30T11:48:31.647Z,9.93
2023-01-30T11:51:04.339Z,8.50
2023-01-30T11:53:39.852Z,9.37
2023-01-30T11:56:15.823Z,11.30
2023-01-30T11:58:46.290Z,12.17
2023-01-30T12:01:14.168Z,12.37
2023-01-30T12:03:54.352Z,12.17
2023-01-30T12:06:33.162Z,10.63
2023-01-30T12:09:00.339Z,10.50
2023-01-30T12:11:45.260Z,9.40
2023-01-30T12:14:37.177Z,9.37
2023-01-30T12:17:26.687Z,10.20
2023-01-30T12:20:00.177Z,8.27
2023-01-30T12:22:38.406Z,8.27
2023-01-30T12:25:21.106Z,10.17
2023-01-30T12:30:43.573Z,8.80
2023-01-30T12:33:15.391Z,8.70
2023-01-30T12:36:00.622Z,8.70
2023-01-30T12:38:36.454Z,8.67
2023-01-30T12:41:08.929Z,7.97
2023-01-30T12:44:05.186Z,7.83
2023-01-30T12:46:40.193Z,7.80
2023-01-30T12:49:25.088Z,8.70
2023-01-30T12:52:04.294Z,7.43
2023-01-30T12:54:56.448Z,7.93
2023-01-30T12:57:35.133Z,8.10
2023-01-30T13:00:36.994Z,9.23
2023-01-30T13:03:35.275Z,7.70
2023-01-30T13:06:20.008Z,7.63
2023-01-30T13:08:56.366Z,7.47
2023-01-30T13:11:40.537Z,8.13
2023-01-30T13:14:28.786Z,8.50
2023-01-30T13:17:03.787Z,8.60
2023-01-30T13:19:44.173Z,8.47
2023-01-30T13:22:19.585Z,7.83
2023-01-30T13:25:25.189Z,7.63
2023-01-30T13:27:58.195Z,8.67
2023-01-30T13:30:27.653Z,7.77
2023-01-30T13:33:00.933Z,7.40
2023-01-30T13:35:46.839Z,9.50
2023-01-30T13:38:22.384Z,8.37
2023-01-30T13:40:51.164Z,7.97
2023-01-30T13:43:30.400Z,8.07
2023-01-30T13:46:02.858Z,8.23
2023-01-30T13:48:57.280Z,7.80
2023-01-30T13:51:26.704Z,7.53
2023-01-30T13:54:26.819Z,7.63
2023-01-30T13:57:12.972Z,8.00
2023-01-30T14:00:16.773Z,7.83
2023-01-30T14:03:10.572Z,10.33
2023-01-30T14:05:52.801Z,7.60
2023-01-30T14:08:27.754Z,8.03
2023-01-30T14:10:56.563Z,8.60
2023-01-30T14:13:27.677Z,8.60
2023-01-30T14:16:01.040Z,7.53
2023-01-30T14:18:36.591Z,7.67
2023-01-30T14:21:20.260Z,8.00
2023-01-30T14:24:04.876Z,7.40
2023-01-30T14:26:53.268Z,7.97
2023-01-30T14:29:37.979Z,7.17
2023-01-30T14:32:14.123Z,7.87
2023-01-30T14:34:50.233Z,8.00
2023-01-30T14:37:35.332Z,7.77
2023-01-30T14:40:03.457Z,7.80
2023-01-30T14:42:31.329Z,7.80
2023-01-30T14:45:02.387Z,7.53
2023-01-30T14:47:37.562Z,7.93
2023-01-30T14:50:23.062Z,8.37
2023-01-30T14:52:55.269Z,8.70
2023-01-30T14:55:28.641Z,8.20
2023-01-30T14:58:02.266Z,9.90
2023-01-30T15:00:38.169Z,12.80
2023-01-30T15:03:16.894Z,10.53
2023-01-30T15:05:45.930Z,11.90
2023-01-30T15:08:20.693Z,10.37
2023-01-30T15:11:01.904Z,9.50
2023-01-30T15:13:31.150Z,9.70
2023-01-30T15:16:15.624Z,9.37
2023-01-30T15:19:05.263Z,8.13
2023-01-30T15:22:09.067Z,8.60
2023-01-30T15:25:18.240Z,8.73
2023-01-30T15:28:04.954Z,9.03
2023-01-30T15:30:57.062Z,9.47
2023-01-30T15:33:31.561Z,9.23
2023-01-30T15:36:17.172Z,8.57
2023-01-30T15:38:43.713Z,8.53
2023-01-30T15:41:10.912Z,8.50
2023-01-30T15:44:03.362Z,8.83
2023-01-30T15:46:35.880Z,8.83
2023-01-30T15:49:10.475Z,7.87
2023-01-30T15:51:38.084Z,8.63
2023-01-30T15:54:10.570Z,8.87
2023-01-30T15:56:39.892Z,8.70
2023-01-30T15:59:07.168Z,8.57
2023-01-30T16:01:34.068Z,7.87
2023-01-30T16:04:00.716Z,8.33
2023-01-30T16:06:34.719Z,8.37
2023-01-30T16:09:21.875Z,8.10
2023-01-30T16:11:48.449Z,7.67
2023-01-30T16:14:19.149Z,7.57
2023-01-30T16:16:52.263Z,7.13
2023-01-30T16:19:30.390Z,7.70
2023-01-30T16:22:17.155Z,6.03
2023-01-30T16:24:47.807Z,7.97
2023-01-30T16:27:21.834Z,8.03
2023-01-30T16:29:53.120Z,8.57
2023-01-30T16:32:26.009Z,8.10
2023-01-30T16:35:36.006Z,8.43
2023-01-30T16:38:03.355Z,8.37
2023-01-30T16:40:44.415Z,7.53
2023-01-30T16:43:23.509Z,8.23
2023-01-30T16:45:52.721Z,8.73
2023-01-30T16:48:20.783Z,8.40
2023-01-30T16:51:00.906Z,7.77
2023-01-30T16:53:33.969Z,8.87
2023-01-30T16:56:10.734Z,8.73
2023-01-30T16:58:38.518Z,8.10
2023-01-30T17:01:08.938Z,9.97
2023-01-30T17:03:39.176Z,13.13
2023-01-30T17:06:15.094Z,13.43
2023-01-30T17:08:47.489Z,10.73
2023-01-30T17:11:34.472Z,9.47
2023-01-30T17:14:19.557Z,8.17
2023-01-30T17:17:08.594Z,9.07
2023-01-30T17:19:36.137Z,9.00
2023-01-30T17:22:06.176Z,7.97
2023-01-30T17:24:32.796Z,8.10
2023-01-30T17:27:04.448Z,9.60
2023-01-30T17:29:42.470Z,7.63
2023-01-30T17:32:15.364Z,8.33
2023-01-30T17:34:42.320Z,7.73
2023-01-30T17:37:15.417Z,7.57
2023-01-30T17:39:42.088Z,8.13
2023-01-30T17:42:13.216Z,8.10
2023-01-30T17:44:40.740Z,7.73
2023-01-30T17:47:11.051Z,8.00
2023-01-30T17:49:37.681Z,7.57
2023-01-30T17:52:07.276Z,7.40
2023-01-30T17:54:33.831Z,7.53
2023-01-30T17:57:05.918Z,7.67
2023-01-30T17:59:33.539Z,7.40
2023-01-30T18:02:00.906Z,7.60
2023-01-30T18:04:27.451Z,8.23
2023-01-30T18:07:03.439Z,6.47
2023-01-30T18:09:32.631Z,6.63
2023-01-30T18:12:02.086Z,7.30
2023-01-30T18:14:32.584Z,7.03
2023-01-30T18:17:02.885Z,6.23
2023-01-30T18:19:32.633Z,8.27
2023-01-30T18:22:02.036Z,6.57
2023-01-30T18:24:33.358Z,7.27
2023-01-30T18:27:05.915Z,9.73
2023-01-30T18:29:34.337Z,7.60
2023-01-30T18:32:05.854Z,6.83
2023-01-30T18:34:34.012Z,6.53
2023-01-30T18:37:00.728Z,8.57
2023-01-30T18:39:30.408Z,8.83
2023-01-30T18:42:04.059Z,7.77
2023-01-30T18:44:33.790Z,8.30
2023-01-30T18:47:05.804Z,9.10
2023-01-30T18:49:32.449Z,8.77
2023-01-30T18:52:02.013Z,8.70
2023-01-30T18:54:30.975Z,7.83
2023-01-30T18:57:35.699Z,8.57
2023-01-30T19:00:03.722Z,9.13
2023-01-30T19:02:31.796Z,9.27
2023-01-30T19:05:01.343Z,8.90
2023-01-30T19:08:06.446Z,9.90
2023-01-30T19:10:35.735Z,8.87
2023-01-30T19:13:21.138Z,10.40
2023-01-30T19:16:39.109Z,9.60
2023-01-30T19:19:08.072Z,8.30
2023-01-30T19:21:35.736Z,8.50
2023-01-30T19:24:13.552Z,9.13
2023-01-30T19:26:40.582Z,9.23
2023-01-30T19:29:07.084Z,10.13
2023-01-30T19:31:33.808Z,9.10
2023-01-30T19:34:02.786Z,9.90
2023-01-30T19:36:34.255Z,11.20
2023-01-30T19:39:05.919Z,10.57
2023-01-30T19:41:35.006Z,10.07
2023-01-30T19:44:07.027Z,9.70
2023-01-30T19:46:33.820Z,10.37
2023-01-30T19:49:04.454Z,9.23
2023-01-30T19:51:34.224Z,9.93
2023-01-30T19:54:06.517Z,9.90
2023-01-30T19:56:33.699Z,10.17
2023-01-30T19:59:02.414Z,10.97
2023-01-30T20:01:37.619Z,10.77
2023-01-30T20:04:05.213Z,10.17
2023-01-30T20:06:36.275Z,8.60
2023-01-30T20:09:10.005Z,8.57
2023-01-30T20:11:38.419Z,8.80
2023-01-30T20:14:06.978Z,8.67
2023-01-30T20:16:36.740Z,8.77
2023-01-30T20:19:11.577Z,9.70
2023-01-30T20:21:38.164Z,26.63
2023-01-30T20:24:05.293Z,13.97
2023-01-30T20:26:39.462Z,14.53
2023-01-30T20:29:08.053Z,10.83
2023-01-30T20:31:35.114Z,9.07
2023-01-30T20:34:07.708Z,11.77
2023-01-30T20:36:34.712Z,10.00
2023-01-30T20:39:06.412Z,11.73
2023-01-30T20:41:35.577Z,10.50
2023-01-30T20:44:02.716Z,9.60
2023-01-30T20:46:44.437Z,9.50
2023-01-30T20:49:19.802Z,11.70
2023-01-30T20:51:47.624Z,10.97
2023-01-30T20:54:14.814Z,10.97
2023-01-30T20:56:46.850Z,10.73
2023-01-30T20:59:15.890Z,9.73
2023-01-30T21:02:03.123Z,11.10
2023-01-30T21:04:33.378Z,9.57
2023-01-30T21:07:01.944Z,9.37
2023-01-30T21:09:32.451Z,8.57
2023-01-30T21:12:02.385Z,10.60
2023-01-30T21:14:30.256Z,10.13
2023-01-30T21:16:57.300Z,10.20
2023-01-30T21:19:24.175Z,10.17
2023-01-30T21:21:54.276Z,9.10
2023-01-30T21:24:27.224Z,9.13
2023-01-30T21:26:55.389Z,9.17
2023-01-30T21:29:25.280Z,10.00
2023-01-30T21:31:52.364Z,9.73
2023-01-30T21:34:18.973Z,9.50
2023-01-30T21:37:05.455Z,9.53
2023-01-30T21:39:53.537Z,9.60
2023-01-30T21:42:39.261Z,8.37
2023-01-30T21:45:06.834Z,9.50
2023-01-30T21:47:33.486Z,9.17
2023-01-30T21:49:59.929Z,10.17
2023-01-30T21:52:26.361Z,9.73
2023-01-30T21:54:52.855Z,10.13
2023-01-30T21:57:19.323Z,10.63
2023-01-30T21:59:46.099Z,9.67
2023-01-30T22:02:12.509Z,10.60
2023-01-30T22:04:39.035Z,10.17
2023-01-30T22:07:06.948Z,10.03
2023-01-30T22:09:36.679Z,9.70
2023-01-30T22:12:06.143Z,11.30
2023-01-30T22:14:35.247Z,10.43
2023-01-30T22:17:01.864Z,10.50
2023-01-30T22:19:35.174Z,10.83
2023-01-30T22:22:05.074Z,11.77
2023-01-30T22:24:31.705Z,9.97
2023-01-30T22:26:58.799Z,11.13
2023-01-30T22:29:25.312Z,10.07
2023-01-30T22:31:51.870Z,8.97
2023-01-30T22:34:18.661Z,9.83
2023-01-30T22:36:45.091Z,9.37
2023-01-30T22:39:11.601Z,9.63
2023-01-30T22:41:40.804Z,9.53
2023-01-30T22:44:09.160Z,10.67
2023-01-30T22:46:37.538Z,9.50
2023-01-30T22:49:06.030Z,9.40
2023-01-30T22:51:38.656Z,10.63
2023-01-30T22:54:10.747Z,8.67
2023-01-30T22:56:40.754Z,9.30
2023-01-30T22:59:08.184Z,9.70
2023-01-30T23:01:38.328Z,9.83
2023-01-30T23:04:08.025Z,9.03
2023-01-30T23:06:34.557Z,9.60
2023-01-30T23:09:01.408Z,9.17
2023-01-30T23:11:39.660Z,10.67
2023-01-30T23:14:10.388Z,10.53
2023-01-30T23:16:40.269Z,9.53
2023-01-30T23:19:08.397Z,8.53
2023-01-30T23:21:43.856Z,9.93
2023-01-30T23:24:16.240Z,7.80
2023-01-30T23:26:47.186Z,9.00
2023-01-30T23:29:15.598Z,9.47
2023-01-30T23:31:44.067Z,10.03
2023-01-30T23:34:13.990Z,9.00
2023-01-30T23:36:40.611Z,9.00
2023-01-30T23:39:11.944Z,9.70
2023-01-30T23:41:44.220Z,9.97
2023-01-30T23:44:10.906Z,10.60
2023-01-30T23:46:40.695Z,11.00
2023-01-30T23:49:10.181Z,8.87
2023-01-30T23:51:41.326Z,10.50
2023-01-30T23:54:12.095Z,9.90
2023-01-30T23:56:41.949Z,10.40
2023-01-30T23:59:11.749Z,9.37
